sensor_id;sensor_type;location;lat;lon;timestamp;P1;durP1;ratioP1;P2;durP2;ratioP2
7181;SDS011;3632;42.724;23.298;2023-10-19T00:00:19;18.97;;;14.43;;
7181;SDS011;3632;42.724;23.298;2023-10-19T00:02:46;22.97;;;14.50;;
7181;SDS011;3632;42.724;23.298;2023-10-19T00:05:16;18.20;;;14.93;;
7181;SDS011;3632;42.724;23.298;2023-10-19T00:07:42;16.50;;;14.47;;
7181;SDS011;3632;42.724;23.298;2023-10-19T00:10:10;22.37;;;15.70;;
7181;SDS011;3632;42.724;23.298;2023-10-19T00:12:40;19.03;;;14.70;;
7181;SDS011;3632;42.724;23.298;2023-10-19T00:15:09;20.27;;;15.53;;
7181;SDS011;3632;42.724;23.298;2023-10-19T00:17:36;19.00;;;15.50;;
7181;SDS011;3632;42.724;23.298;2023-10-19T00:20:05;18.70;;;14.87;;
7181;SDS011;3632;42.724;23.298;2023-10-19T00:22:54;19.10;;;15.53;;
7181;SDS011;3632;42.724;23.298;2023-10-19T00:25:23;20.30;;;15.63;;
7181;SDS011;3632;42.724;23.298;2023-10-19T00:27:50;20.60;;;16.37;;
7181;SDS011;3632;42.724;23.298;2023-10-19T00:30:17;22.10;;;16.40;;
7181;SDS011;3632;42.724;23.298;2023-10-19T00:32:48;21.77;;;14.93;;
7181;SDS011;3632;42.724;23.298;2023-10-19T00:35:16;21.07;;;15.80;;
7181;SDS011;3632;42.724;23.298;2023-10-19T00:37:59;17.27;;;15.37;;
7181;SDS011;3632;42.724;23.298;2023-10-19T00:40:51;19.13;;;15.73;;
7181;SDS011;3632;42.724;23.298;2023-10-19T00:43:27;19.33;;;16.10;;
7181;SDS011;3632;42.724;23.298;2023-10-19T00:45:59;17.67;;;14.57;;
7181;SDS011;3632;42.724;23.298;2023-10-19T00:48:33;20.70;;;15.70;;
7181;SDS011;3632;42.724;23.298;2023-10-19T00:51:00;19.13;;;15.20;;
7181;SDS011;3632;42.724;23.298;2023-10-19T00:53:35;18.93;;;14.87;;
7181;SDS011;3632;42.724;23.298;2023-10-19T00:56:06;20.57;;;15.60;;
7181;SDS011;3632;42.724;23.298;2023-10-19T00:58:35;17.23;;;14.37;;
7181;SDS011;3632;42.724;23.298;2023-10-19T01:01:06;20.90;;;15.30;;
7181;SDS011;3632;42.724;23.298;2023-10-19T01:03:34;17.63;;;15.17;;
7181;SDS011;3632;42.724;23.298;2023-10-19T01:06:03;19.47;;;15.97;;
7181;SDS011;3632;42.724;23.298;2023-10-19T01:08:35;19.73;;;15.80;;
7181;SDS011;3632;42.724;23.298;2023-10-19T01:11:08;18.40;;;14.87;;
7181;SDS011;3632;42.724;23.298;2023-10-19T01:13:37;18.50;;;14.60;;
7181;SDS011;3632;42.724;23.298;2023-10-19T01:16:11;18.10;;;15.30;;
7181;SDS011;3632;42.724;23.298;2023-10-19T01:18:41;19.60;;;15.00;;
7181;SDS011;3632;42.724;23.298;2023-10-19T01:21:08;17.90;;;14.53;;
7181;SDS011;3632;42.724;23.298;2023-10-19T01:23:38;18.47;;;14.20;;
7181;SDS011;3632;42.724;23.298;2023-10-19T01:26:05;18.73;;;14.83;;
7181;SDS011;3632;42.724;23.298;2023-10-19T01:28:34;18.60;;;14.70;;
7181;SDS011;3632;42.724;23.298;2023-10-19T01:31:09;21.97;;;15.77;;
7181;SDS011;3632;42.724;23.298;2023-10-19T01:33:40;19.47;;;15.43;;
7181;SDS011;3632;42.724;23.298;2023-10-19T01:36:08;17.90;;;15.47;;
7181;SDS011;3632;42.724;23.298;2023-10-19T01:38:41;17.97;;;14.30;;
7181;SDS011;3632;42.724;23.298;2023-10-19T01:41:08;19.93;;;15.37;;
7181;SDS011;3632;42.724;23.298;2023-10-19T01:43:40;20.93;;;15.77;;
7181;SDS011;3632;42.724;23.298;2023-10-19T01:46:08;21.50;;;15.80;;
7181;SDS011;3632;42.724;23.298;2023-10-19T01:48:38;20.03;;;14.83;;
7181;SDS011;3632;42.724;23.298;2023-10-19T01:51:05;17.10;;;14.23;;
7181;SDS011;3632;42.724;23.298;2023-10-19T01:53:36;20.60;;;15.13;;
7181;SDS011;3632;42.724;23.298;2023-10-19T01:56:06;16.87;;;14.57;;
7181;SDS011;3632;42.724;23.298;2023-10-19T01:58:36;18.30;;;15.67;;
7181;SDS011;3632;42.724;23.298;2023-10-19T02:01:02;19.87;;;15.10;;
7181;SDS011;3632;42.724;23.298;2023-10-19T02:03:33;20.73;;;15.73;;
7181;SDS011;3632;42.724;23.298;2023-10-19T02:06:00;19.87;;;15.83;;
7181;SDS011;3632;42.724;23.298;2023-10-19T02:08:37;19.47;;;16.57;;
7181;SDS011;3632;42.724;23.298;2023-10-19T02:11:05;18.93;;;15.77;;
7181;SDS011;3632;42.724;23.298;2023-10-19T02:13:39;19.23;;;16.17;;
7181;SDS011;3632;42.724;23.298;2023-10-19T02:16:05;22.67;;;16.20;;
7181;SDS011;3632;42.724;23.298;2023-10-19T02:18:32;19.63;;;15.97;;
7181;SDS011;3632;42.724;23.298;2023-10-19T02:21:00;20.77;;;15.87;;
7181;SDS011;3632;42.724;23.298;2023-10-19T02:23:31;20.37;;;15.97;;
7181;SDS011;3632;42.724;23.298;2023-10-19T02:25:59;20.43;;;15.57;;
7181;SDS011;3632;42.724;23.298;2023-10-19T02:28:29;23.70;;;16.60;;
7181;SDS011;3632;42.724;23.298;2023-10-19T02:30:56;20.63;;;16.67;;
7181;SDS011;3632;42.724;23.298;2023-10-19T02:33:28;17.40;;;15.10;;
7181;SDS011;3632;42.724;23.298;2023-10-19T02:35:55;18.27;;;16.13;;
7181;SDS011;3632;42.724;23.298;2023-10-19T02:38:22;19.10;;;16.33;;
7181;SDS011;3632;42.724;23.298;2023-10-19T02:40:48;20.03;;;16.47;;
7181;SDS011;3632;42.724;23.298;2023-10-19T02:43:14;22.90;;;16.00;;
7181;SDS011;3632;42.724;23.298;2023-10-19T02:45:42;18.10;;;15.27;;
7181;SDS011;3632;42.724;23.298;2023-10-19T02:48:12;21.13;;;16.30;;
7181;SDS011;3632;42.724;23.298;2023-10-19T02:50:38;19.87;;;16.20;;
7181;SDS011;3632;42.724;23.298;2023-10-19T02:53:05;19.60;;;15.70;;
7181;SDS011;3632;42.724;23.298;2023-10-19T02:55:31;18.50;;;15.40;;
7181;SDS011;3632;42.724;23.298;2023-10-19T02:57:58;18.20;;;15.37;;
7181;SDS011;3632;42.724;23.298;2023-10-19T03:00:24;21.20;;;15.87;;
7181;SDS011;3632;42.724;23.298;2023-10-19T03:02:59;18.23;;;15.13;;
7181;SDS011;3632;42.724;23.298;2023-10-19T03:05:25;18.77;;;15.47;;
7181;SDS011;3632;42.724;23.298;2023-10-19T03:07:52;23.50;;;16.03;;
7181;SDS011;3632;42.724;23.298;2023-10-19T03:10:18;22.77;;;16.73;;
7181;SDS011;3632;42.724;23.298;2023-10-19T03:12:50;22.63;;;16.33;;
7181;SDS011;3632;42.724;23.298;2023-10-19T03:15:16;23.80;;;16.87;;
7181;SDS011;3632;42.724;23.298;2023-10-19T03:17:46;19.27;;;15.43;;
7181;SDS011;3632;42.724;23.298;2023-10-19T03:20:13;19.17;;;16.10;;
7181;SDS011;3632;42.724;23.298;2023-10-19T03:22:42;20.80;;;15.83;;
7181;SDS011;3632;42.724;23.298;2023-10-19T03:25:08;20.40;;;15.37;;
7181;SDS011;3632;42.724;23.298;2023-10-19T03:28:00;22.13;;;15.97;;
7181;SDS011;3632;42.724;23.298;2023-10-19T03:30:33;23.90;;;16.30;;
7181;SDS011;3632;42.724;23.298;2023-10-19T03:33:04;21.90;;;15.80;;
7181;SDS011;3632;42.724;23.298;2023-10-19T03:35:32;20.53;;;15.13;;
7181;SDS011;3632;42.724;23.298;2023-10-19T03:38:00;23.63;;;15.90;;
7181;SDS011;3632;42.724;23.298;2023-10-19T03:40:33;22.40;;;15.63;;
7181;SDS011;3632;42.724;23.298;2023-10-19T03:43:04;23.20;;;16.70;;
7181;SDS011;3632;42.724;23.298;2023-10-19T03:45:42;22.47;;;17.77;;
7181;SDS011;3632;42.724;23.298;2023-10-19T03:48:13;24.77;;;18.93;;
7181;SDS011;3632;42.724;23.298;2023-10-19T03:50:42;22.27;;;18.30;;
7181;SDS011;3632;42.724;23.298;2023-10-19T03:53:09;23.80;;;17.43;;
7181;SDS011;3632;42.724;23.298;2023-10-19T03:55:38;20.73;;;17.47;;
7181;SDS011;3632;42.724;23.298;2023-10-19T03:58:08;21.90;;;19.03;;
7181;SDS011;3632;42.724;23.298;2023-10-19T04:00:37;21.83;;;17.60;;
7181;SDS011;3632;42.724;23.298;2023-10-19T04:03:04;24.90;;;18.43;;
7181;SDS011;3632;42.724;23.298;2023-10-19T04:05:31;23.77;;;17.47;;
7181;SDS011;3632;42.724;23.298;2023-10-19T04:08:05;23.13;;;18.03;;
7181;SDS011;3632;42.724;23.298;2023-10-19T04:10:38;27.00;;;17.60;;
7181;SDS011;3632;42.724;23.298;2023-10-19T04:13:09;24.87;;;17.60;;
7181;SDS011;3632;42.724;23.298;2023-10-19T04:15:39;24.73;;;19.07;;
7181;SDS011;3632;42.724;23.298;2023-10-19T04:18:06;28.47;;;20.93;;
7181;SDS011;3632;42.724;23.298;2023-10-19T04:20:36;25.67;;;18.87;;
7181;SDS011;3632;42.724;23.298;2023-10-19T04:23:22;24.43;;;17.87;;
7181;SDS011;3632;42.724;23.298;2023-10-19T04:25:52;35.70;;;19.47;;
7181;SDS011;3632;42.724;23.298;2023-10-19T04:28:21;26.73;;;19.57;;
7181;SDS011;3632;42.724;23.298;2023-10-19T04:30:55;25.07;;;18.07;;
7181;SDS011;3632;42.724;23.298;2023-10-19T04:33:25;28.97;;;19.53;;
7181;SDS011;3632;42.724;23.298;2023-10-19T04:35:53;29.23;;;19.93;;
7181;SDS011;3632;42.724;23.298;2023-10-19T04:38:23;30.20;;;20.13;;
7181;SDS011;3632;42.724;23.298;2023-10-19T04:40:49;34.80;;;21.00;;
7181;SDS011;3632;42.724;23.298;2023-10-19T04:43:16;25.30;;;20.20;;
7181;SDS011;3632;42.724;23.298;2023-10-19T04:45:43;38.33;;;21.67;;
7181;SDS011;3632;42.724;23.298;2023-10-19T04:48:10;29.00;;;21.07;;
7181;SDS011;3632;42.724;23.298;2023-10-19T04:50:37;30.40;;;19.97;;
7181;SDS011;3632;42.724;23.298;2023-10-19T04:53:05;31.67;;;21.07;;
7181;SDS011;3632;42.724;23.298;2023-10-19T04:55:33;35.63;;;22.03;;
7181;SDS011;3632;42.724;23.298;2023-10-19T04:58:00;30.93;;;20.20;;
7181;SDS011;3632;42.724;23.298;2023-10-19T05:00:26;39.63;;;22.17;;
7181;SDS011;3632;42.724;23.298;2023-10-19T05:02:53;33.67;;;21.73;;
7181;SDS011;3632;42.724;23.298;2023-10-19T05:05:20;35.60;;;21.90;;
7181;SDS011;3632;42.724;23.298;2023-10-19T05:07:47;34.30;;;21.43;;
7181;SDS011;3632;42.724;23.298;2023-10-19T05:10:13;66.43;;;22.50;;
7181;SDS011;3632;42.724;23.298;2023-10-19T05:12:42;44.03;;;22.37;;
7181;SDS011;3632;42.724;23.298;2023-10-19T05:15:09;33.07;;;20.77;;
7181;SDS011;3632;42.724;23.298;2023-10-19T05:17:36;41.80;;;21.23;;
7181;SDS011;3632;42.724;23.298;2023-10-19T05:20:03;31.93;;;21.03;;
7181;SDS011;3632;42.724;23.298;2023-10-19T05:22:32;56.97;;;21.43;;
7181;SDS011;3632;42.724;23.298;2023-10-19T05:24:59;35.40;;;20.47;;
7181;SDS011;3632;42.724;23.298;2023-10-19T05:27:26;28.03;;;19.80;;
7181;SDS011;3632;42.724;23.298;2023-10-19T05:29:54;25.40;;;20.43;;
7181;SDS011;3632;42.724;23.298;2023-10-19T05:32:21;27.17;;;20.83;;
7181;SDS011;3632;42.724;23.298;2023-10-19T05:34:49;29.97;;;19.73;;
7181;SDS011;3632;42.724;23.298;2023-10-19T05:37:16;26.20;;;19.10;;
7181;SDS011;3632;42.724;23.298;2023-10-19T05:39:43;25.37;;;18.33;;
7181;SDS011;3632;42.724;23.298;2023-10-19T05:42:09;26.10;;;19.63;;
7181;SDS011;3632;42.724;23.298;2023-10-19T05:44:36;28.77;;;19.87;;
7181;SDS011;3632;42.724;23.298;2023-10-19T05:47:04;32.13;;;19.93;;
7181;SDS011;3632;42.724;23.298;2023-10-19T05:49:33;24.37;;;19.23;;
7181;SDS011;3632;42.724;23.298;2023-10-19T05:51:59;27.30;;;19.83;;
7181;SDS011;3632;42.724;23.298;2023-10-19T05:54:28;33.43;;;22.97;;
7181;SDS011;3632;42.724;23.298;2023-10-19T05:56:55;54.87;;;29.13;;
7181;SDS011;3632;42.724;23.298;2023-10-19T05:59:23;40.53;;;28.50;;
7181;SDS011;3632;42.724;23.298;2023-10-19T06:01:51;42.97;;;28.00;;
7181;SDS011;3632;42.724;23.298;2023-10-19T06:04:19;43.13;;;29.57;;
7181;SDS011;3632;42.724;23.298;2023-10-19T06:06:46;39.10;;;27.70;;
7181;SDS011;3632;42.724;23.298;2023-10-19T06:09:13;42.87;;;30.83;;
7181;SDS011;3632;42.724;23.298;2023-10-19T06:11:40;50.73;;;31.37;;
7181;SDS011;3632;42.724;23.298;2023-10-19T06:14:08;47.77;;;31.63;;
7181;SDS011;3632;42.724;23.298;2023-10-19T06:16:35;45.47;;;31.00;;
7181;SDS011;3632;42.724;23.298;2023-10-19T06:19:03;40.53;;;28.97;;
7181;SDS011;3632;42.724;23.298;2023-10-19T06:21:31;42.97;;;29.40;;
7181;SDS011;3632;42.724;23.298;2023-10-19T06:23:58;43.17;;;29.27;;
7181;SDS011;3632;42.724;23.298;2023-10-19T06:26:25;56.97;;;35.50;;
7181;SDS011;3632;42.724;23.298;2023-10-19T06:28:52;49.73;;;31.53;;
7181;SDS011;3632;42.724;23.298;2023-10-19T06:31:23;43.70;;;30.07;;
7181;SDS011;3632;42.724;23.298;2023-10-19T06:33:51;41.27;;;30.03;;
7181;SDS011;3632;42.724;23.298;2023-10-19T06:36:17;41.17;;;29.87;;
7181;SDS011;3632;42.724;23.298;2023-10-19T06:38:46;43.20;;;29.70;;
7181;SDS011;3632;42.724;23.298;2023-10-19T06:41:16;38.57;;;27.10;;
7181;SDS011;3632;42.724;23.298;2023-10-19T06:43:43;45.67;;;29.57;;
7181;SDS011;3632;42.724;23.298;2023-10-19T06:46:10;37.97;;;28.07;;
7181;SDS011;3632;42.724;23.298;2023-10-19T06:48:37;33.47;;;24.87;;
7181;SDS011;3632;42.724;23.298;2023-10-19T06:51:04;34.77;;;24.77;;
7181;SDS011;3632;42.724;23.298;2023-10-19T06:53:31;34.30;;;24.07;;
7181;SDS011;3632;42.724;23.298;2023-10-19T06:56:00;31.20;;;23.97;;
7181;SDS011;3632;42.724;23.298;2023-10-19T06:58:29;32.00;;;23.17;;
7181;SDS011;3632;42.724;23.298;2023-10-19T07:00:56;28.87;;;22.40;;
7181;SDS011;3632;42.724;23.298;2023-10-19T07:03:25;30.07;;;22.53;;
7181;SDS011;3632;42.724;23.298;2023-10-19T07:05:53;32.17;;;23.83;;
7181;SDS011;3632;42.724;23.298;2023-10-19T07:08:21;34.27;;;24.30;;
7181;SDS011;3632;42.724;23.298;2023-10-19T07:10:48;29.60;;;22.43;;
7181;SDS011;3632;42.724;23.298;2023-10-19T07:13:17;33.70;;;22.97;;
7181;SDS011;3632;42.724;23.298;2023-10-19T07:15:45;30.67;;;22.53;;
7181;SDS011;3632;42.724;23.298;2023-10-19T07:18:12;30.83;;;21.43;;
7181;SDS011;3632;42.724;23.298;2023-10-19T07:20:39;30.07;;;22.93;;
7181;SDS011;3632;42.724;23.298;2023-10-19T07:23:07;31.47;;;22.97;;
7181;SDS011;3632;42.724;23.298;2023-10-19T07:25:43;26.63;;;20.60;;
7181;SDS011;3632;42.724;23.298;2023-10-19T07:28:12;26.87;;;17.60;;
7181;SDS011;3632;42.724;23.298;2023-10-19T07:30:42;19.37;;;16.50;;
7181;SDS011;3632;42.724;23.298;2023-10-19T07:33:09;23.87;;;17.60;;
7181;SDS011;3632;42.724;23.298;2023-10-19T07:35:42;22.07;;;16.33;;
7181;SDS011;3632;42.724;23.298;2023-10-19T07:38:12;22.07;;;16.87;;
7181;SDS011;3632;42.724;23.298;2023-10-19T07:40:39;22.80;;;17.47;;
7181;SDS011;3632;42.724;23.298;2023-10-19T07:43:06;20.23;;;16.93;;
7181;SDS011;3632;42.724;23.298;2023-10-19T07:45:33;26.23;;;19.97;;
7181;SDS011;3632;42.724;23.298;2023-10-19T07:48:03;31.60;;;23.27;;
7181;SDS011;3632;42.724;23.298;2023-10-19T07:50:32;36.07;;;25.10;;
7181;SDS011;3632;42.724;23.298;2023-10-19T07:52:59;32.63;;;22.37;;
7181;SDS011;3632;42.724;23.298;2023-10-19T07:55:26;35.43;;;23.87;;
7181;SDS011;3632;42.724;23.298;2023-10-19T07:57:53;38.93;;;26.57;;
7181;SDS011;3632;42.724;23.298;2023-10-19T08:00:21;35.33;;;26.90;;
7181;SDS011;3632;42.724;23.298;2023-10-19T08:02:48;33.60;;;25.93;;
7181;SDS011;3632;42.724;23.298;2023-10-19T08:05:18;31.23;;;23.83;;
7181;SDS011;3632;42.724;23.298;2023-10-19T08:07:44;32.63;;;22.90;;
7181;SDS011;3632;42.724;23.298;2023-10-19T08:10:12;30.60;;;22.93;;
7181;SDS011;3632;42.724;23.298;2023-10-19T08:12:40;30.40;;;22.60;;
7181;SDS011;3632;42.724;23.298;2023-10-19T08:15:09;29.50;;;23.13;;
7181;SDS011;3632;42.724;23.298;2023-10-19T08:17:37;30.53;;;24.13;;
7181;SDS011;3632;42.724;23.298;2023-10-19T08:20:05;32.57;;;22.07;;
7181;SDS011;3632;42.724;23.298;2023-10-19T08:22:36;29.80;;;23.23;;
7181;SDS011;3632;42.724;23.298;2023-10-19T08:25:03;27.93;;;22.67;;
7181;SDS011;3632;42.724;23.298;2023-10-19T08:27:36;29.37;;;23.87;;
7181;SDS011;3632;42.724;23.298;2023-10-19T08:30:05;31.70;;;22.70;;
7181;SDS011;3632;42.724;23.298;2023-10-19T08:32:33;30.27;;;22.13;;
7181;SDS011;3632;42.724;23.298;2023-10-19T08:35:01;26.83;;;21.10;;
7181;SDS011;3632;42.724;23.298;2023-10-19T08:37:28;23.90;;;17.47;;
7181;SDS011;3632;42.724;23.298;2023-10-19T08:39:56;17.30;;;14.30;;
7181;SDS011;3632;42.724;23.298;2023-10-19T08:42:23;18.93;;;15.90;;
7181;SDS011;3632;42.724;23.298;2023-10-19T08:44:50;19.90;;;15.00;;
7181;SDS011;3632;42.724;23.298;2023-10-19T08:47:16;18.47;;;14.57;;
7181;SDS011;3632;42.724;23.298;2023-10-19T08:49:43;19.67;;;14.00;;
7181;SDS011;3632;42.724;23.298;2023-10-19T08:52:10;17.20;;;14.40;;
7181;SDS011;3632;42.724;23.298;2023-10-19T08:54:40;17.70;;;13.97;;
7181;SDS011;3632;42.724;23.298;2023-10-19T08:57:09;27.67;;;19.40;;
7181;SDS011;3632;42.724;23.298;2023-10-19T08:59:37;23.03;;;17.80;;
7181;SDS011;3632;42.724;23.298;2023-10-19T09:02:07;17.43;;;14.97;;
7181;SDS011;3632;42.724;23.298;2023-10-19T09:04:40;14.63;;;12.90;;
7181;SDS011;3632;42.724;23.298;2023-10-19T09:07:07;12.87;;;11.50;;
7181;SDS011;3632;42.724;23.298;2023-10-19T09:09:35;13.43;;;12.03;;
7181;SDS011;3632;42.724;23.298;2023-10-19T09:12:05;11.50;;;10.07;;
7181;SDS011;3632;42.724;23.298;2023-10-19T09:14:34;15.20;;;13.37;;
7181;SDS011;3632;42.724;23.298;2023-10-19T09:17:06;16.63;;;13.80;;
7181;SDS011;3632;42.724;23.298;2023-10-19T09:19:36;19.53;;;16.17;;
7181;SDS011;3632;42.724;23.298;2023-10-19T09:22:04;11.17;;;9.93;;
7181;SDS011;3632;42.724;23.298;2023-10-19T09:24:41;14.53;;;12.33;;
7181;SDS011;3632;42.724;23.298;2023-10-19T09:27:10;12.23;;;10.73;;
7181;SDS011;3632;42.724;23.298;2023-10-19T09:29:39;16.07;;;12.93;;
7181;SDS011;3632;42.724;23.298;2023-10-19T09:32:07;13.00;;;10.37;;
7181;SDS011;3632;42.724;23.298;2023-10-19T09:34:34;16.77;;;13.63;;
7181;SDS011;3632;42.724;23.298;2023-10-19T09:37:02;13.57;;;12.03;;
7181;SDS011;3632;42.724;23.298;2023-10-19T09:39:29;14.53;;;11.97;;
7181;SDS011;3632;42.724;23.298;2023-10-19T09:42:00;13.03;;;9.03;;
7181;SDS011;3632;42.724;23.298;2023-10-19T09:44:30;12.27;;;9.23;;
7181;SDS011;3632;42.724;23.298;2023-10-19T09:47:06;12.80;;;9.50;;
7181;SDS011;3632;42.724;23.298;2023-10-19T09:49:38;11.87;;;10.60;;
7181;SDS011;3632;42.724;23.298;2023-10-19T09:52:05;14.47;;;12.57;;
7181;SDS011;3632;42.724;23.298;2023-10-19T09:54:34;11.27;;;10.10;;
7181;SDS011;3632;42.724;23.298;2023-10-19T09:57:13;14.73;;;10.50;;
7181;SDS011;3632;42.724;23.298;2023-10-19T09:59:44;11.33;;;9.57;;
7181;SDS011;3632;42.724;23.298;2023-10-19T10:02:15;11.37;;;9.63;;
7181;SDS011;3632;42.724;23.298;2023-10-19T10:04:43;11.80;;;10.50;;
7181;SDS011;3632;42.724;23.298;2023-10-19T10:07:11;9.63;;;8.67;;
7181;SDS011;3632;42.724;23.298;2023-10-19T10:09:39;12.17;;;10.10;;
7181;SDS011;3632;42.724;23.298;2023-10-19T10:12:15;11.07;;;10.07;;
7181;SDS011;3632;42.724;23.298;2023-10-19T10:14:52;10.77;;;8.97;;
7181;SDS011;3632;42.724;23.298;2023-10-19T10:17:23;9.10;;;8.20;;
7181;SDS011;3632;42.724;23.298;2023-10-19T10:19:52;15.43;;;13.77;;
7181;SDS011;3632;42.724;23.298;2023-10-19T10:22:21;18.70;;;14.50;;
7181;SDS011;3632;42.724;23.298;2023-10-19T10:24:53;11.10;;;9.60;;
7181;SDS011;3632;42.724;23.298;2023-10-19T10:27:21;10.03;;;9.03;;
7181;SDS011;3632;42.724;23.298;2023-10-19T10:29:55;9.07;;;8.17;;
7181;SDS011;3632;42.724;23.298;2023-10-19T10:35:11;9.67;;;8.00;;
7181;SDS011;3632;42.724;23.298;2023-10-19T10:38:16;12.17;;;8.20;;
7181;SDS011;3632;42.724;23.298;2023-10-19T10:40:43;11.00;;;9.40;;
7181;SDS011;3632;42.724;23.298;2023-10-19T10:43:10;24.73;;;9.80;;
7181;SDS011;3632;42.724;23.298;2023-10-19T10:45:37;39.77;;;10.47;;
7181;SDS011;3632;42.724;23.298;2023-10-19T10:48:07;23.27;;;12.87;;
7181;SDS011;3632;42.724;23.298;2023-10-19T10:50:38;19.77;;;10.77;;
7181;SDS011;3632;42.724;23.298;2023-10-19T10:53:06;15.90;;;10.87;;
7181;SDS011;3632;42.724;23.298;2023-10-19T10:55:33;11.70;;;9.03;;
7181;SDS011;3632;42.724;23.298;2023-10-19T10:58:00;10.97;;;9.97;;
7181;SDS011;3632;42.724;23.298;2023-10-19T11:00:27;13.77;;;6.97;;
7181;SDS011;3632;42.724;23.298;2023-10-19T11:03:00;15.87;;;8.10;;
7181;SDS011;3632;42.724;23.298;2023-10-19T11:05:30;10.30;;;6.90;;
7181;SDS011;3632;42.724;23.298;2023-10-19T11:08:02;9.67;;;7.93;;
7181;SDS011;3632;42.724;23.298;2023-10-19T11:10:32;10.53;;;7.90;;
7181;SDS011;3632;42.724;23.298;2023-10-19T11:13:00;7.03;;;6.10;;
7181;SDS011;3632;42.724;23.298;2023-10-19T11:15:27;8.70;;;6.20;;
7181;SDS011;3632;42.724;23.298;2023-10-19T11:17:54;7.13;;;6.30;;
7181;SDS011;3632;42.724;23.298;2023-10-19T11:20:21;9.67;;;5.90;;
7181;SDS011;3632;42.724;23.298;2023-10-19T11:22:49;5.97;;;5.47;;
7181;SDS011;3632;42.724;23.298;2023-10-19T11:25:18;6.67;;;5.60;;
7181;SDS011;3632;42.724;23.298;2023-10-19T11:27:45;7.53;;;5.70;;
7181;SDS011;3632;42.724;23.298;2023-10-19T11:30:13;9.10;;;8.13;;
7181;SDS011;3632;42.724;23.298;2023-10-19T11:32:48;7.20;;;6.23;;
7181;SDS011;3632;42.724;23.298;2023-10-19T11:35:18;6.33;;;5.00;;
7181;SDS011;3632;42.724;23.298;2023-10-19T11:37:49;9.43;;;8.13;;
7181;SDS011;3632;42.724;23.298;2023-10-19T11:40:18;9.07;;;8.17;;
7181;SDS011;3632;42.724;23.298;2023-10-19T11:42:45;5.57;;;5.07;;
7181;SDS011;3632;42.724;23.298;2023-10-19T11:45:12;6.47;;;5.83;;
7181;SDS011;3632;42.724;23.298;2023-10-19T11:47:39;6.43;;;5.30;;
7181;SDS011;3632;42.724;23.298;2023-10-19T11:50:06;6.67;;;4.50;;
7181;SDS011;3632;42.724;23.298;2023-10-19T11:52:37;5.57;;;5.07;;
7181;SDS011;3632;42.724;23.298;2023-10-19T11:55:06;5.87;;;5.27;;
7181;SDS011;3632;42.724;23.298;2023-10-19T11:57:33;10.45;;;9.35;;
7181;SDS011;3632;42.724;23.298;2023-10-19T12:00:00;8.43;;;5.80;;
7181;SDS011;3632;42.724;23.298;2023-10-19T12:02:33;5.95;;;5.45;;
7181;SDS011;3632;42.724;23.298;2023-10-19T12:05:02;9.32;;;6.68;;
7181;SDS011;3632;42.724;23.298;2023-10-19T12:07:31;7.07;;;5.57;;
7181;SDS011;3632;42.724;23.298;2023-10-19T12:09:59;6.20;;;5.60;;
7181;SDS011;3632;42.724;23.298;2023-10-19T12:12:27;5.40;;;4.90;;
7181;SDS011;3632;42.724;23.298;2023-10-19T12:14:54;6.28;;;5.68;;
7181;SDS011;3632;42.724;23.298;2023-10-19T12:17:23;8.38;;;5.50;;
7181;SDS011;3632;42.724;23.298;2023-10-19T12:19:51;5.88;;;5.38;;
7181;SDS011;3632;42.724;23.298;2023-10-19T12:22:18;6.80;;;5.45;;
7181;SDS011;3632;42.724;23.298;2023-10-19T12:24:46;5.85;;;5.15;;
7181;SDS011;3632;42.724;23.298;2023-10-19T12:27:13;6.95;;;6.25;;
7181;SDS011;3632;42.724;23.298;2023-10-19T12:29:41;6.47;;;5.55;;
7181;SDS011;3632;42.724;23.298;2023-10-19T12:32:09;6.72;;;4.68;;
7181;SDS011;3632;42.724;23.298;2023-10-19T12:34:39;6.03;;;5.45;;
7181;SDS011;3632;42.724;23.298;2023-10-19T12:37:05;5.28;;;4.78;;
7181;SDS011;3632;42.724;23.298;2023-10-19T12:39:35;6.00;;;4.57;;
7181;SDS011;3632;42.724;23.298;2023-10-19T12:42:08;5.30;;;4.80;;
7181;SDS011;3632;42.724;23.298;2023-10-19T12:44:35;7.50;;;4.82;;
7181;SDS011;3632;42.724;23.298;2023-10-19T12:47:07;6.03;;;5.47;;
7181;SDS011;3632;42.724;23.298;2023-10-19T12:49:38;8.68;;;5.53;;
7181;SDS011;3632;42.724;23.298;2023-10-19T12:52:05;5.68;;;5.13;;
7181;SDS011;3632;42.724;23.298;2023-10-19T12:54:33;5.40;;;4.88;;
7181;SDS011;3632;42.724;23.298;2023-10-19T12:57:01;6.10;;;4.80;;
7181;SDS011;3632;42.724;23.298;2023-10-19T12:59:29;9.07;;;6.63;;
7181;SDS011;3632;42.724;23.298;2023-10-19T13:01:55;6.60;;;6.00;;
7181;SDS011;3632;42.724;23.298;2023-10-19T13:04:25;5.50;;;4.78;;
7181;SDS011;3632;42.724;23.298;2023-10-19T13:06:55;5.03;;;4.63;;
7181;SDS011;3632;42.724;23.298;2023-10-19T13:09:24;4.60;;;4.20;;
7181;SDS011;3632;42.724;23.298;2023-10-19T13:11:56;5.80;;;4.63;;
7181;SDS011;3632;42.724;23.298;2023-10-19T13:14:23;6.65;;;4.60;;
7181;SDS011;3632;42.724;23.298;2023-10-19T13:16:50;6.72;;;4.88;;
7181;SDS011;3632;42.724;23.298;2023-10-19T13:19:17;7.97;;;5.30;;
7181;SDS011;3632;42.724;23.298;2023-10-19T13:21:47;6.63;;;4.53;;
7181;SDS011;3632;42.724;23.298;2023-10-19T13:24:15;4.60;;;4.13;;
7181;SDS011;3632;42.724;23.298;2023-10-19T13:26:43;6.27;;;4.67;;
7181;SDS011;3632;42.724;23.298;2023-10-19T13:29:11;7.40;;;4.97;;
7181;SDS011;3632;42.724;23.298;2023-10-19T13:31:38;5.27;;;4.73;;
7181;SDS011;3632;42.724;23.298;2023-10-19T13:34:05;12.50;;;4.70;;
7181;SDS011;3632;42.724;23.298;2023-10-19T13:36:35;7.00;;;4.60;;
7181;SDS011;3632;42.724;23.298;2023-10-19T13:39:05;6.77;;;4.70;;
7181;SDS011;3632;42.724;23.298;2023-10-19T13:41:38;6.80;;;5.47;;
7181;SDS011;3632;42.724;23.298;2023-10-19T13:44:04;9.70;;;5.00;;
7181;SDS011;3632;42.724;23.298;2023-10-19T13:46:31;10.50;;;6.97;;
7181;SDS011;3632;42.724;23.298;2023-10-19T13:48:58;10.83;;;7.57;;
7181;SDS011;3632;42.724;23.298;2023-10-19T13:51:25;8.00;;;7.27;;
7181;SDS011;3632;42.724;23.298;2023-10-19T13:53:52;8.03;;;5.67;;
7181;SDS011;3632;42.724;23.298;2023-10-19T13:56:20;13.97;;;11.90;;
7181;SDS011;3632;42.724;23.298;2023-10-19T13:58:46;20.00;;;10.43;;
7181;SDS011;3632;42.724;23.298;2023-10-19T14:01:13;9.37;;;6.53;;
7181;SDS011;3632;42.724;23.298;2023-10-19T14:03:42;6.33;;;4.53;;
7181;SDS011;3632;42.724;23.298;2023-10-19T14:06:11;6.67;;;4.60;;
7181;SDS011;3632;42.724;23.298;2023-10-19T14:08:38;7.33;;;5.60;;
7181;SDS011;3632;42.724;23.298;2023-10-19T14:11:05;7.57;;;4.90;;
7181;SDS011;3632;42.724;23.298;2023-10-19T14:13:34;5.23;;;3.90;;
7181;SDS011;3632;42.724;23.298;2023-10-19T14:16:04;8.13;;;4.33;;
7181;SDS011;3632;42.724;23.298;2023-10-19T14:18:32;6.00;;;4.10;;
7181;SDS011;3632;42.724;23.298;2023-10-19T14:20:59;8.30;;;3.93;;
7181;SDS011;3632;42.724;23.298;2023-10-19T14:23:27;7.67;;;4.00;;
7181;SDS011;3632;42.724;23.298;2023-10-19T14:25:54;5.47;;;4.47;;
7181;SDS011;3632;42.724;23.298;2023-10-19T14:28:21;5.93;;;4.73;;
7181;SDS011;3632;42.724;23.298;2023-10-19T14:30:49;6.37;;;4.20;;
7181;SDS011;3632;42.724;23.298;2023-10-19T14:33:16;6.43;;;5.13;;
7181;SDS011;3632;42.724;23.298;2023-10-19T14:35:44;4.37;;;3.90;;
7181;SDS011;3632;42.724;23.298;2023-10-19T14:38:11;7.23;;;4.90;;
7181;SDS011;3632;42.724;23.298;2023-10-19T14:40:39;8.73;;;5.30;;
7181;SDS011;3632;42.724;23.298;2023-10-19T14:43:10;5.40;;;4.20;;
7181;SDS011;3632;42.724;23.298;2023-10-19T14:45:39;5.80;;;4.00;;
7181;SDS011;3632;42.724;23.298;2023-10-19T14:48:08;6.40;;;4.60;;
7181;SDS011;3632;42.724;23.298;2023-10-19T14:50:36;5.83;;;4.20;;
7181;SDS011;3632;42.724;23.298;2023-10-19T14:53:03;5.73;;;4.50;;